Time;durP1;ratioP1;P1;durP2;ratioP2;P2;SDS_P1;SDS_P2;PMS_P1;PMS_P2;Temp;Humidity;BMP_temperature;BMP_pressure;BME280_temperature;BME280_humidity;BME280_pressure;Samples;Min_cycle;Max_cycle;Signal;HPM_P1;HPM_P2
2022/12/30 00:01:41;;;;;;;10.57;2.53;;;;;;;9.57;65.89;100982.16;5096117;28;20045;-69
2022/12/30 00:04:09;;;;;;;8.57;2.33;;;;;;;9.55;66.06;100981.53;5101787;28;20070;-65
2022/12/30 00:06:38;;;;;;;8.43;2.38;;;;;;;9.56;65.95;100977.00;5104065;28;20055;-69
2022/12/30 00:09:06;;;;;;;6.55;2.33;;;;;;;9.56;66.04;100975.13;5090200;28;20051;-69
2022/12/30 00:11:35;;;;;;;9.75;2.85;;;;;;;9.57;65.98;100978.63;5099579;28;20067;-69
2022/12/30 00:33:47;;;;;;;9.65;2.22;;;;;;;9.50;65.82;100993.94;5098708;28;20054;-69
2022/12/30 00:36:16;;;;;;;5.40;1.90;;;;;;;9.51;66.15;100996.41;5098079;28;20177;-69
2022/12/30 00:38:45;;;;;;;10.20;3.17;;;;;;;9.50;65.66;101001.97;5104534;28;20116;-69
2022/12/30 00:43:58;;;;;;;11.30;3.00;;;;;;;9.47;66.12;100992.50;5101945;28;20048;-66
2022/12/30 00:46:26;;;;;;;8.02;2.08;;;;;;;9.45;66.20;100995.38;5113694;28;20048;-69
2022/12/30 00:57:11;;;;;;;10.25;2.63;;;;;;;9.43;65.91;101007.38;5108996;28;20131;-68
2022/12/30 00:59:39;;;;;;;9.40;1.98;;;;;;;9.42;66.05;101008.41;5099296;28;20065;-70
2022/12/30 01:02:07;;;;;;;6.50;2.80;;;;;;;9.40;66.38;101005.94;5108354;28;20055;-69
2022/12/30 01:04:35;;;;;;;10.57;2.45;;;;;;;9.40;66.30;101013.97;5106280;28;20120;-69
2022/12/30 01:07:03;;;;;;;10.68;2.28;;;;;;;9.39;66.47;101004.28;5103782;28;20130;-69
2022/12/30 01:09:34;;;;;;;10.98;2.35;;;;;;;9.37;66.26;101006.34;5096564;28;20059;-69
2022/12/30 01:12:09;;;;;;;14.82;2.45;;;;;;;9.36;65.61;101018.09;5105674;28;20077;-69
2022/12/30 01:14:38;;;;;;;8.43;2.30;;;;;;;9.36;66.20;101014.59;5106195;28;20586;-69
2022/12/30 01:17:08;;;;;;;12.50;3.25;;;;;;;9.35;66.24;101018.31;5105991;28;20648;-69
2022/12/30 01:19:36;;;;;;;9.55;2.13;;;;;;;9.24;66.04;101003.69;5107340;28;20501;-69
2022/12/30 01:22:04;;;;;;;10.63;2.40;;;;;;;9.33;66.44;101023.06;5104379;28;20047;-68
2022/12/30 01:24:33;;;;;;;11.15;2.53;;;;;;;9.31;66.33;101012.53;5106844;28;20044;-69
2022/12/30 01:27:01;;;;;;;9.27;2.28;;;;;;;9.30;66.06;101012.75;5104528;28;20069;-69
2022/12/30 01:29:33;;;;;;;8.07;2.65;;;;;;;9.29;66.15;101008.44;5106372;28;20048;-69
2022/12/30 01:32:02;;;;;;;11.35;3.30;;;;;;;9.28;65.66;101012.16;5097692;28;20044;-69
2022/12/30 01:34:30;;;;;;;9.38;2.35;;;;;;;9.28;66.24;101017.50;5106409;28;20040;-69
2022/12/30 01:36:57;;;;;;;6.72;2.42;;;;;;;9.26;65.88;101015.03;5102269;28;20044;-66
2022/12/30 01:39:25;;;;;;;8.93;2.20;;;;;;;9.26;66.18;101024.94;5106112;28;20048;-70
2022/12/30 01:41:55;;;;;;;5.75;2.42;;;;;;;9.24;66.03;101025.16;5106267;28;20131;-69
2022/12/30 01:44:56;;;;;;;7.97;2.45;;;;;;;9.23;65.83;101028.84;5108336;28;20345;-68
2022/12/30 01:47:28;;;;;;;6.70;2.10;;;;;;;9.24;65.90;101032.38;5101265;28;20080;-68
2022/12/30 01:50:02;;;;;;;11.05;2.40;;;;;;;9.23;65.63;101036.91;5106722;28;20092;-68
2022/12/30 01:52:30;;;;;;;11.32;2.33;;;;;;;9.24;66.20;101037.72;5107282;28;20140;-68
2022/12/30 01:55:03;;;;;;;7.75;2.35;;;;;;;9.22;66.15;101042.47;5109882;28;20139;-69
2022/12/30 01:57:33;;;;;;;8.70;2.35;;;;;;;9.21;65.99;101049.69;5112579;28;20044;-69
2022/12/30 02:00:04;;;;;;;9.88;2.67;;;;;;;9.21;66.43;101056.91;5105708;28;20063;-68
2022/12/30 02:02:32;;;;;;;11.15;2.75;;;;;;;9.20;65.96;101060.63;5101840;28;20082;-69
2022/12/30 02:05:02;;;;;;;10.23;2.30;;;;;;;9.12;66.24;101048.25;5107742;28;20099;-67
2022/12/30 02:07:36;;;;;;;9.02;3.22;;;;;;;9.20;66.28;101060.63;5098449;28;20047;-69
2022/12/30 02:10:06;;;;;;;9.13;2.00;;;;;;;9.18;65.83;101058.16;5106736;28;20059;-69
2022/12/30 02:12:36;;;;;;;10.02;2.33;;;;;;;9.18;65.96;101050.09;5097461;28;20083;-69
2022/12/30 02:15:06;;;;;;;7.28;2.22;;;;;;;9.20;66.03;101055.25;5106395;28;20044;-68
2022/12/30 02:17:44;;;;;;;11.32;3.20;;;;;;;9.19;65.85;101058.97;5103430;28;20044;-69
2022/12/30 02:20:46;;;;;;;12.63;2.55;;;;;;;9.17;66.14;101040.41;5107271;28;20137;-68
2022/12/30 02:23:41;;;;;;;10.60;3.10;;;;;;;9.17;66.17;101034.22;5102700;28;20050;-69
2022/12/30 02:26:27;;;;;;;12.77;3.35;;;;;;;9.16;66.01;101036.09;5115231;28;20051;-69
2022/12/30 02:29:40;;;;;;;5.88;2.17;;;;;;;9.14;66.23;101025.56;5106645;28;20541;-66
2022/12/30 02:32:16;;;;;;;8.45;2.20;;;;;;;9.13;66.18;101031.13;5090260;28;20077;-69
2022/12/30 02:35:00;;;;;;;18.48;2.60;;;;;;;9.10;66.04;101018.97;5104410;28;20082;-68
2022/12/30 02:37:34;;;;;;;8.27;2.60;;;;;;;9.09;65.83;101022.69;5100006;28;20150;-68
2022/12/30 02:40:08;;;;;;;11.23;3.13;;;;;;;8.97;66.46;101002.91;5106542;28;20048;-68
2022/12/30 02:45:31;;;;;;;9.85;2.50;;;;;;;9.08;66.16;101004.13;5088830;28;20056;-69
2022/12/30 02:48:04;;;;;;;10.65;2.90;;;;;;;9.08;65.66;101009.50;5106503;28;20051;-68
2022/12/30 02:53:26;;;;;;;9.73;2.78;;;;;;;9.09;66.10;101008.47;5116869;28;20067;-69
2022/12/30 02:55:55;;;;;;;9.70;2.55;;;;;;;9.09;66.03;100998.56;5109089;28;20044;-69
2022/12/30 02:58:27;;;;;;;9.40;2.70;;;;;;;9.08;66.03;100994.22;5106090;28;20428;-69
2022/12/30 03:04:08;;;;;;;11.23;2.47;;;;;;;9.02;66.39;100981.66;5116274;28;20048;-68
2022/12/30 03:07:15;;;;;;;9.82;2.90;;;;;;;9.03;65.71;100977.13;5105312;28;20333;-70
2022/12/30 03:12:50;;;;;;;7.25;2.08;;;;;;;9.00;65.83;100982.91;5103178;28;20044;-69
2022/12/30 03:15:24;;;;;;;7.22;2.38;;;;;;;8.99;66.13;100981.25;5105483;28;20050;-69
2022/12/30 03:17:53;;;;;;;9.63;2.00;;;;;;;8.98;65.95;100974.25;5102600;28;20048;-68
2022/12/30 03:20:25;;;;;;;9.40;2.30;;;;;;;8.96;65.82;100979.81;5101577;28;20571;-69
2022/12/30 03:28:30;;;;;;;8.88;2.47;;;;;;;8.97;65.67;100980.63;5100697;28;20063;-65
2022/12/30 03:31:02;;;;;;;10.32;2.60;;;;;;;8.95;66.09;100988.06;5095149;28;20143;-68
2022/12/30 03:33:32;;;;;;;9.43;2.65;;;;;;;8.90;66.34;100980.63;5107654;28;20056;-68
2022/12/30 03:36:09;;;;;;;13.30;3.50;;;;;;;8.91;65.97;100970.75;5103334;28;20048;-69
2022/12/30 03:38:38;;;;;;;;;;;;;;;8.91;65.55;100965.38;5104916;28;20071;-69
2022/12/30 03:41:09;;;;;;;14.18;2.75;;;;;;;8.90;65.71;100967.25;5103811;28;19920;-70
2022/12/30 03:43:38;;;;;;;7.95;2.53;;;;;;;8.90;66.25;100961.88;5105375;28;20054;-68
2022/12/30 03:46:07;;;;;;;10.68;2.20;;;;;;;8.90;65.57;100964.56;5114794;28;20081;-68
2022/12/30 03:48:35;;;;;;;11.90;2.83;;;;;;;8.89;65.72;100970.94;5102160;28;20059;-68
2022/12/30 03:51:04;;;;;;;6.93;1.95;;;;;;;8.89;66.03;100964.75;5107309;28;20048;-67
2022/12/30 03:53:32;;;;;;;7.47;2.60;;;;;;;8.89;65.99;100962.91;5102605;28;20048;-67
2022/12/30 03:56:00;;;;;;;8.35;2.08;;;;;;;8.88;65.82;100961.25;5112882;28;20130;-68
2022/12/30 03:58:29;;;;;;;11.73;2.33;;;;;;;8.89;65.59;100970.94;5104434;28;20044;-62
2022/12/30 04:00:57;;;;;;;9.88;3.10;;;;;;;8.88;66.16;100966.63;5116699;28;20504;-68
2022/12/30 04:03:25;;;;;;;7.80;2.42;;;;;;;8.88;65.73;100968.47;5103927;28;20131;-68
2022/12/30 04:05:56;;;;;;;6.35;2.22;;;;;;;8.88;66.29;100984.56;5106617;28;20048;-68
2022/12/30 04:08:25;;;;;;;6.45;1.85;;;;;;;8.86;66.22;100982.09;5102267;28;20064;-67
2022/12/30 04:10:53;;;;;;;10.02;2.45;;;;;;;8.87;65.85;100985.59;5097463;28;20191;-68
2022/12/30 04:13:21;;;;;;;11.18;2.72;;;;;;;8.87;65.77;100988.25;5099078;28;20056;-69
2022/12/30 04:15:49;;;;;;;11.18;2.92;;;;;;;8.88;65.48;100982.69;5102419;28;20044;-70
2022/12/30 04:18:18;;;;;;;8.88;2.15;;;;;;;8.88;65.96;100979.19;5106308;28;20469;-68
2022/12/30 04:20:47;;;;;;;10.13;2.60;;;;;;;8.78;65.80;100974.25;5104649;28;20050;-68
2022/12/30 04:23:15;;;;;;;10.18;2.20;;;;;;;8.84;66.20;100981.47;5108520;28;20390;-68
2022/12/30 04:25:45;;;;;;;8.23;2.50;;;;;;;8.84;65.52;100986.00;5097583;28;20047;-68
2022/12/30 04:28:13;;;;;;;7.97;2.83;;;;;;;8.81;66.45;100977.34;5106273;28;20185;-68
2022/12/30 04:30:41;;;;;;;7.20;2.67;;;;;;;8.80;66.19;100981.06;5100701;28;20171;-68
2022/12/30 04:33:09;;;;;;;14.23;3.78;;;;;;;8.80;66.20;100982.91;5103526;28;20135;-66
2022/12/30 04:35:37;;;;;;;11.10;2.58;;;;;;;8.79;66.05;100976.72;5102689;28;20135;-68
2022/12/30 04:38:04;;;;;;;10.75;3.00;;;;;;;8.79;66.24;100971.38;5101679;28;20044;-67
2022/12/30 04:40:32;;;;;;;11.98;3.00;;;;;;;8.80;65.80;100969.50;5104369;28;20052;-68
2022/12/30 04:43:01;;;;;;;8.93;2.53;;;;;;;8.79;65.78;100978.59;5101647;28;20067;-68
2022/12/30 04:45:29;;;;;;;11.60;2.65;;;;;;;8.76;65.67;100979.81;5102207;28;20108;-68
2022/12/30 04:47:57;;;;;;;8.75;2.53;;;;;;;8.75;66.30;100969.31;5103689;28;20040;-69
2022/12/30 04:50:25;;;;;;;11.15;3.03;;;;;;;8.75;65.89;100966.63;5104224;28;20044;-69
2022/12/30 04:52:53;;;;;;;13.52;3.35;;;;;;;8.75;65.90;100977.34;5102963;28;20040;-68
2022/12/30 04:55:21;;;;;;;8.85;2.97;;;;;;;8.61;65.80;100962.34;5099622;28;20048;-69
2022/12/30 04:57:49;;;;;;;8.13;2.00;;;;;;;8.73;66.29;100982.91;5103642;28;20099;-69
2022/12/30 05:00:18;;;;;;;9.20;3.15;;;;;;;8.74;65.97;100981.88;5102117;28;20193;-69
2022/12/30 05:02:46;;;;;;;12.90;2.85;;;;;;;8.74;65.64;100976.53;5109212;28;20127;-69
2022/12/30 05:05:14;;;;;;;12.50;3.08;;;;;;;8.74;65.46;100973.03;5100634;28;20114;-68
2022/12/30 05:07:42;;;;;;;10.50;2.45;;;;;;;8.74;65.97;100967.66;5103378;28;20104;-65
2022/12/30 05:10:09;;;;;;;9.82;2.92;;;;;;;8.72;66.30;100967.03;5101774;28;20058;-69
2022/12/30 05:12:37;;;;;;;12.68;2.78;;;;;;;8.73;65.68;100969.50;5102299;28;20082;-69
2022/12/30 05:15:06;;;;;;;10.60;3.40;;;;;;;8.73;66.15;100960.66;5099563;28;20051;-65
2022/12/30 05:17:35;;;;;;;11.07;3.22;;;;;;;8.71;65.91;100966.22;5108982;28;20135;-69
2022/12/30 05:20:03;;;;;;;10.20;2.15;;;;;;;8.70;66.18;100956.53;5111799;28;20048;-69
2022/12/30 05:22:31;;;;;;;10.15;3.60;;;;;;;8.70;66.18;100956.53;5101649;28;20045;-68
2022/12/30 05:27:44;;;;;;;8.25;2.67;;;;;;;8.68;65.64;100960.44;5101957;28;20040;-69
2022/12/30 05:30:12;;;;;;;13.88;3.00;;;;;;;8.67;66.18;100953.44;5098045;28;20050;-69
2022/12/30 05:32:41;;;;;;;10.73;2.42;;;;;;;8.67;65.40;100950.75;5106916;28;20084;-68
2022/12/30 05:35:10;;;;;;;10.43;2.65;;;;;;;8.65;66.27;100950.19;5105467;28;20051;-69
2022/12/30 05:37:37;;;;;;;8.60;3.47;;;;;;;8.65;65.62;100953.69;5102564;28;20040;-69
2022/12/30 05:40:07;;;;;;;10.60;2.53;;;;;;;8.64;65.90;100962.75;5102741;28;20055;-69
2022/12/30 05:42:35;;;;;;;8.93;3.45;;;;;;;8.63;65.44;100966.47;5105296;28;20080;-69
2022/12/30 05:45:03;;;;;;;10.30;2.88;;;;;;;8.53;65.77;100951.81;5110363;28;20577;-69
2022/12/30 05:47:31;;;;;;;10.38;2.50;;;;;;;8.62;66.32;100962.13;5099779;28;20075;-69
2022/12/30 05:50:00;;;;;;;7.72;2.70;;;;;;;8.62;65.70;100963.97;5105705;28;20058;-69
2022/12/30 05:52:29;;;;;;;10.55;2.15;;;;;;;8.62;65.91;100962.13;5109595;28;20047;-68
2022/12/30 05:54:57;;;;;;;11.35;3.35;;;;;;;8.59;65.80;100953.69;5104042;28;20409;-69
2022/12/30 05:57:25;;;;;;;7.22;2.35;;;;;;;8.61;65.88;100948.94;5104809;28;20046;-69
2022/12/30 05:59:53;;;;;;;14.45;3.00;;;;;;;8.60;65.82;100947.28;5103484;28;20097;-69
2022/12/30 06:02:21;;;;;;;7.47;2.30;;;;;;;8.59;66.05;100956.34;5109022;28;20107;-69
2022/12/30 06:04:49;;;;;;;10.00;2.45;;;;;;;8.62;65.91;100956.78;5098758;28;20145;-68
2022/12/30 06:07:18;;;;;;;12.95;2.80;;;;;;;8.64;65.26;100953.88;4745340;28;10000074;-68
2022/12/30 06:09:46;;;;;;;10.02;2.83;;;;;;;8.63;65.57;100952.25;5110746;28;20055;-70
2022/12/30 06:12:14;;;;;;;9.25;2.55;;;;;;;8.65;66.08;100952.84;5104103;28;20115;-67
2022/12/30 06:14:41;;;;;;;7.38;2.88;;;;;;;8.64;65.90;100954.72;5101789;28;20351;-71
2022/12/30 06:17:14;;;;;;;7.45;2.53;;;;;;;8.65;65.83;100951.00;5104528;28;20043;-70
2022/12/30 06:19:42;;;;;;;12.27;3.15;;;;;;;8.63;66.01;100939.66;5105938;28;20058;-70
2022/12/30 06:22:10;;;;;;;7.80;2.30;;;;;;;8.62;66.26;100934.50;5103770;28;20056;-70
2022/12/30 06:24:39;;;;;;;7.70;2.40;;;;;;;8.61;65.62;100940.91;5104878;28;20054;-70
2022/12/30 06:27:07;;;;;;;6.80;2.42;;;;;;;8.58;65.89;100934.09;5109251;28;20043;-71
2022/12/30 06:29:35;;;;;;;10.45;2.38;;;;;;;8.59;65.57;100932.25;5106555;28;20063;-67
2022/12/30 06:32:03;;;;;;;7.75;2.15;;;;;;;8.56;66.41;100932.66;5109811;28;20052;-71
2022/12/30 06:34:30;;;;;;;7.82;3.13;;;;;;;8.56;66.20;100929.97;5095165;28;20511;-69
2022/12/30 06:36:58;;;;;;;8.52;2.20;;;;;;;8.54;66.34;100918.66;5102541;28;20071;-70
2022/12/30 06:39:26;;;;;;;9.70;2.42;;;;;;;8.53;66.13;100915.16;5097440;28;20087;-71
2022/12/30 06:41:55;;;;;;;7.28;2.75;;;;;;;8.54;66.20;100911.44;5097580;28;20135;-72
2022/12/30 06:44:23;;;;;;;9.00;2.88;;;;;;;8.54;66.60;100907.94;5095773;28;20044;-71
2022/12/30 06:46:51;;;;;;;10.63;2.55;;;;;;;8.53;66.01;100908.97;5102501;28;20525;-72
2022/12/30 06:49:19;;;;;;;12.65;2.95;;;;;;;8.53;66.37;100900.94;5102820;28;20056;-71
2022/12/30 06:51:46;;;;;;;9.23;2.30;;;;;;;8.52;66.18;100899.28;5102903;28;20044;-70
2022/12/30 06:54:14;;;;;;;10.00;2.33;;;;;;;8.51;65.68;100890.41;5101599;28;20464;-72
2022/12/30 06:56:42;;;;;;;10.27;2.70;;;;;;;8.50;66.42;100883.41;5102044;28;20116;-71
2022/12/30 06:59:11;;;;;;;8.35;2.97;;;;;;;8.49;66.45;100871.06;5101051;28;20058;-69
2022/12/30 07:01:39;;;;;;;5.80;2.10;;;;;;;8.47;65.78;100871.25;5110855;28;20066;-71
2022/12/30 07:04:08;;;;;;;10.20;2.45;;;;;;;8.48;66.05;100864.06;5108729;28;20054;-74
2022/12/30 07:06:36;;;;;;;10.35;2.30;;;;;;;8.49;66.55;100863.03;5104543;28;20477;-72
2022/12/30 07:09:04;;;;;;;8.02;2.50;;;;;;;8.49;66.33;100860.34;5101522;28;20087;-72
2022/12/30 07:11:32;;;;;;;12.05;3.15;;;;;;;8.50;65.75;100848.59;5102423;28;20048;-73
2022/12/30 07:13:59;;;;;;;8.15;2.00;;;;;;;8.49;65.39;100849.63;5104089;28;20040;-69
2022/12/30 07:16:28;;;;;;;5.63;1.88;;;;;;;8.49;65.81;100855.00;5105221;28;20195;-71
2022/12/30 07:18:56;;;;;;;9.07;1.92;;;;;;;8.45;66.12;100851.91;5106570;28;20103;-70
2022/12/30 07:21:24;;;;;;;10.68;2.60;;;;;;;8.47;65.96;100849.00;5101207;28;20503;-70
2022/12/30 07:23:52;;;;;;;6.30;2.22;;;;;;;8.47;66.35;100851.69;5103442;28;20082;-68
2022/12/30 07:26:20;;;;;;;8.20;2.30;;;;;;;8.46;66.52;100847.38;5099694;28;20072;-67
2022/12/30 07:28:48;;;;;;;6.22;2.30;;;;;;;8.44;65.92;100838.72;5099013;28;20108;-71
2022/12/30 07:31:20;;;;;;;6.40;2.08;;;;;;;8.46;66.59;100839.34;5105364;28;20206;-70
2022/12/30 07:33:49;;;;;;;10.30;2.55;;;;;;;8.45;66.66;100837.69;5098381;28;20055;-70
2022/12/30 07:36:17;;;;;;;7.68;2.55;;;;;;;8.47;66.01;100824.91;5098080;28;20090;-67
2022/12/30 07:38:44;;;;;;;6.60;2.05;;;;;;;8.48;66.38;100818.53;5102292;28;20044;-71
2022/12/30 07:41:12;;;;;;;4.10;1.98;;;;;;;8.50;66.51;100805.75;5099301;28;20048;-71
2022/12/30 07:43:40;;;;;;;8.40;1.88;;;;;;;8.50;66.22;100813.78;5093294;28;20052;-70
2022/12/30 07:46:09;;;;;;;6.90;1.95;;;;;;;8.51;66.11;100809.25;5108296;28;20111;-68
2022/12/30 07:48:37;;;;;;;6.82;2.58;;;;;;;8.55;66.40;100792.53;5094054;28;20055;-66
2022/12/30 07:51:12;;;;;;;5.35;1.75;;;;;;;8.55;65.73;100787.19;5102725;28;20134;-70
2022/12/30 07:53:41;;;;;;;7.22;2.45;;;;;;;8.54;66.62;100780.19;5100238;28;20044;-70
2022/12/30 07:56:11;;;;;;;7.07;2.25;;;;;;;8.53;66.51;100788.44;5102148;28;20059;-68
2022/12/30 07:58:40;;;;;;;9.02;2.10;;;;;;;8.53;66.09;100780.41;5091949;28;20052;-67
2022/12/30 08:01:10;;;;;;;6.95;2.20;;;;;;;8.54;66.56;100776.69;5098424;28;20051;-68
2022/12/30 08:03:39;;;;;;;8.13;2.53;;;;;;;8.54;66.75;100774.00;5106265;28;20076;-68
2022/12/30 08:06:11;;;;;;;11.52;2.28;;;;;;;8.36;66.83;100737.19;5097137;28;20044;-69
2022/12/30 08:08:39;;;;;;;5.72;1.92;;;;;;;8.53;66.61;100759.78;5094468;28;20048;-67
2022/12/30 08:11:09;;;;;;;5.20;1.80;;;;;;;8.54;66.22;100758.75;5099945;28;20108;-66
2022/12/30 08:13:39;;;;;;;4.75;1.55;;;;;;;8.54;66.83;100756.09;5099903;28;20052;-67
2022/12/30 08:16:08;;;;;;;6.47;1.92;;;;;;;8.54;66.48;100749.91;5095615;28;20055;-65
2022/12/30 08:18:36;;;;;;;6.47;2.15;;;;;;;8.54;66.29;100744.53;5093008;28;20032;-68
2022/12/30 08:21:08;;;;;;;5.70;1.80;;;;;;;8.56;67.39;100740.63;5099185;28;20234;-67
2022/12/30 08:23:37;;;;;;;7.05;2.53;;;;;;;8.55;66.66;100733.63;5101607;28;20052;-67
2022/12/30 08:26:06;;;;;;;5.80;1.88;;;;;;;8.50;66.96;100735.28;5096547;28;20103;-67
2022/12/30 08:28:34;;;;;;;4.95;1.65;;;;;;;8.46;67.51;100737.56;5099004;28;20048;-66
2022/12/30 08:31:06;;;;;;;10.88;2.45;;;;;;;8.46;67.08;100743.75;5098986;28;20067;-66
2022/12/30 08:33:33;;;;;;;5.80;1.83;;;;;;;8.53;67.82;100726.81;5096203;28;20056;-63
2022/12/30 08:36:02;;;;;;;11.98;2.13;;;;;;;8.53;66.79;100733.00;5103549;28;20075;-67
2022/12/30 08:38:31;;;;;;;6.72;1.80;;;;;;;8.56;67.51;100715.69;5099882;28;20055;-67
2022/12/30 08:41:06;;;;;;;4.18;2.03;;;;;;;8.59;67.19;100724.13;5091878;28;20055;-67
2022/12/30 08:43:34;;;;;;;8.10;2.00;;;;;;;8.62;67.63;100713.00;5099808;28;20059;-68
2022/12/30 08:46:03;;;;;;;5.35;1.63;;;;;;;8.68;66.97;100708.59;5084037;28;20067;-65
2022/12/30 08:48:31;;;;;;;6.05;1.75;;;;;;;8.71;67.52;100700.16;5102570;28;20047;-68
2022/12/30 08:51:00;;;;;;;6.35;2.30;;;;;;;8.79;67.02;100702.59;5094104;28;20100;-68
2022/12/30 08:53:28;;;;;;;8.23;2.00;;;;;;;8.93;66.75;100685.41;5101557;28;20040;-69
2022/12/30 08:56:01;;;;;;;9.48;1.65;;;;;;;9.09;65.74;100684.06;5101903;28;20143;-69
2022/12/30 08:58:31;;;;;;;4.05;1.50;;;;;;;9.20;65.57;100675.31;5103464;28;20102;-69
2022/12/30 09:00:59;;;;;;;4.93;1.55;;;;;;;9.23;64.90;100657.97;5113579;28;20048;-69
2022/12/30 09:03:28;;;;;;;5.25;1.70;;;;;;;9.45;65.12;100664.63;5102982;28;20309;-69
2022/12/30 09:05:56;;;;;;;4.82;1.73;;;;;;;9.60;64.34;100675.84;5110693;28;20059;-69
2022/12/30 09:08:29;;;;;;;6.22;1.58;;;;;;;9.75;64.08;100670.13;5107976;28;20087;-68
2022/12/30 09:11:02;;;;;;;5.38;2.13;;;;;;;9.85;63.69;100664.28;5107059;28;20135;-71
2022/12/30 09:13:36;;;;;;;6.60;2.10;;;;;;;10.08;62.97;100657.22;5101957;28;20044;-70
2022/12/30 09:16:05;;;;;;;6.32;1.58;;;;;;;10.25;62.52;100646.72;5106603;28;20052;-68
2022/12/30 09:18:33;;;;;;;4.45;1.35;;;;;;;10.39;62.17;100637.47;5099148;28;20058;-69
2022/12/30 09:21:01;;;;;;;2.13;1.45;;;;;;;10.39;62.20;100628.59;5105187;28;20044;-71
2022/12/30 09:23:29;;;;;;;4.65;1.65;;;;;;;10.47;62.59;100635.47;5105804;28;20100;-70
2022/12/30 09:25:57;;;;;;;4.78;1.58;;;;;;;10.52;63.35;100633.75;5106138;28;20127;-70
2022/12/30 09:28:26;;;;;;;6.28;1.40;;;;;;;10.40;62.25;100632.91;5098664;28;20156;-69
2022/12/30 09:30:55;;;;;;;3.13;1.63;;;;;;;10.19;63.32;100634.16;5093411;28;20074;-69
2022/12/30 09:33:23;;;;;;;3.42;1.00;;;;;;;10.15;63.27;100629.47;5102168;28;20098;-69
2022/12/30 09:35:51;;;;;;;6.30;1.60;;;;;;;9.89;63.83;100622.53;5104528;28;20044;-69
2022/12/30 09:38:19;;;;;;;7.80;1.67;;;;;;;9.86;64.46;100626.47;5103621;28;20147;-69
2022/12/30 09:40:56;;;;;;;6.00;1.58;;;;;;;9.79;65.12;100631.09;5104826;28;20525;-68
2022/12/30 09:43:32;;;;;;;4.53;1.95;;;;;;;9.68;64.83;100621.06;5103964;28;20074;-65
2022/12/30 09:46:15;;;;;;;8.20;1.60;;;;;;;9.60;65.15;100616.00;4749370;28;10000214;-71
2022/12/30 09:48:47;;;;;;;4.65;1.20;;;;;;;9.87;66.09;100612.00;5102376;28;20051;-70
2022/12/30 09:51:19;;;;;;;4.50;1.48;;;;;;;9.97;64.24;100606.13;5102333;28;20056;-71
2022/12/30 09:53:53;;;;;;;5.85;1.20;;;;;;;10.08;64.01;100600.00;5103866;28;20044;-63
2022/12/30 09:56:27;;;;;;;5.28;1.40;;;;;;;10.18;64.28;100596.78;5102821;28;20097;-71
2022/12/30 09:58:56;;;;;;;2.17;1.20;;;;;;;10.16;63.67;100591.63;5106109;28;20143;-67
2022/12/30 10:01:31;;;;;;;3.15;0.95;;;;;;;10.18;63.97;100584.19;5102691;28;20082;-71
2022/12/30 10:04:00;;;;;;;8.13;2.35;;;;;;;10.28;63.58;100587.19;5100793;28;20056;-70
2022/12/30 10:06:32;;;;;;;4.75;1.70;;;;;;;10.36;63.43;100572.63;5104674;28;20054;-71
2022/12/30 10:09:23;;;;;;;4.38;1.00;;;;;;;10.65;63.80;100558.31;5103900;28;20075;-70
2022/12/30 10:12:03;;;;;;;3.55;1.17;;;;;;;10.71;62.15;100565.47;5097124;28;20067;-70
2022/12/30 10:14:39;;;;;;;3.75;1.20;;;;;;;10.90;62.43;100560.03;5104870;28;20107;-69
2022/12/30 10:17:22;;;;;;;2.58;0.93;;;;;;;10.85;61.89;100554.53;5100835;28;20044;-71
2022/12/30 10:19:58;;;;;;;3.25;0.93;;;;;;;10.92;62.00;100531.03;5104917;28;20036;-70
2022/12/30 10:22:34;;;;;;;5.65;1.35;;;;;;;11.03;61.61;100530.22;5105839;28;20071;-71
2022/12/30 10:25:18;;;;;;;2.50;1.20;;;;;;;11.02;61.63;100524.03;5098209;28;20074;-67
2022/12/30 10:27:48;;;;;;;3.65;1.23;;;;;;;11.06;61.80;100510.94;5099324;28;20087;-69
2022/12/30 10:30:19;;;;;;;5.55;1.15;;;;;;;10.96;61.83;100508.00;5106297;28;20065;-67
2022/12/30 10:32:53;;;;;;;5.15;1.60;;;;;;;10.73;62.41;100504.25;5105794;28;20071;-67
2022/12/30 10:35:23;;;;;;;6.65;1.60;;;;;;;10.73;63.86;100503.44;5099614;28;20612;-65
2022/12/30 10:37:57;;;;;;;4.05;1.33;;;;;;;10.73;63.29;100504.25;5096954;28;20047;-65
2022/12/30 10:40:38;;;;;;;6.47;1.70;;;;;;;10.49;63.18;100482.94;5102979;28;20100;-66
2022/12/30 10:43:33;;;;;;;8.63;1.63;;;;;;;10.33;63.82;100477.19;5107202;28;20043;-67
2022/12/30 10:46:29;;;;;;;7.22;1.77;;;;;;;10.16;64.79;100469.97;5100089;28;20071;-68
2022/12/30 10:49:27;;;;;;;5.07;1.27;;;;;;;10.03;65.32;100452.19;5090643;28;20044;-65
2022/12/30 10:51:56;;;;;;;8.98;1.92;;;;;;;9.93;65.16;100446.56;5098541;28;20049;-68
2022/12/30 10:54:24;;;;;;;7.38;1.77;;;;;;;9.90;65.41;100439.78;5098769;28;20053;-69
2022/12/30 10:56:52;;;;;;;8.65;1.63;;;;;;;9.85;65.85;100428.91;5097855;28;20057;-65
2022/12/30 10:59:24;;;;;;;9.07;2.10;;;;;;;9.71;65.79;100403.28;5099815;28;20040;-67
2022/12/30 11:02:01;;;;;;;8.82;2.42;;;;;;;9.74;65.89;100406.34;5101596;28;20117;-67
2022/12/30 11:04:36;;;;;;;15.75;1.75;;;;;;;9.64;65.92;100386.44;5096610;28;20052;-66
2022/12/30 11:07:06;;;;;;;6.57;2.50;;;;;;;9.72;66.10;100400.38;5095624;28;20113;-67
2022/12/30 11:09:35;;;;;;;5.82;2.33;;;;;;;9.69;66.35;100383.91;5094215;28;20080;-65
2022/12/30 11:15:13;;;;;;;6.82;1.67;;;;;;;9.63;66.49;100369.53;5088810;28;20070;-70
2022/12/30 11:17:45;;;;;;;5.95;1.60;;;;;;;9.61;66.71;100354.72;5103162;28;20039;-70
2022/12/30 11:20:31;;;;;;;6.78;1.70;;;;;;;9.60;66.54;100351.22;5102007;28;20624;-71
2022/12/30 11:23:01;;;;;;;6.18;1.63;;;;;;;9.59;66.51;100344.22;5103184;28;20058;-71
2022/12/30 11:25:33;;;;;;;4.57;1.70;;;;;;;9.58;66.52;100345.25;5099834;28;20153;-70
2022/12/30 11:28:04;;;;;;;6.85;1.98;;;;;;;9.56;66.39;100325.88;5103799;28;20120;-70
2022/12/30 11:30:38;;;;;;;6.40;1.95;;;;;;;9.48;66.98;100307.44;5098067;28;20058;-72
2022/12/30 11:33:18;;;;;;;7.55;1.73;;;;;;;9.56;66.61;100301.75;5103724;28;20044;-72
2022/12/30 11:35:49;;;;;;;4.38;2.65;;;;;;;9.55;66.70;100286.69;5098210;28;20048;-69
2022/12/30 11:38:41;;;;;;;11.63;2.85;;;;;;;9.55;66.80;100283.19;5102304;28;20478;-70
2022/12/30 11:41:21;;;;;;;9.65;1.83;;;;;;;9.56;67.23;100266.88;5083544;28;20047;-70
2022/12/30 11:43:50;;;;;;;3.83;1.50;;;;;;;9.56;67.24;100263.38;5102955;28;20105;-70
2022/12/30 11:46:22;;;;;;;4.90;1.38;;;;;;;9.54;67.16;100255.53;5106421;28;20044;-70
2022/12/30 11:48:53;;;;;;;6.63;1.75;;;;;;;9.53;66.89;100237.81;5099656;28;20072;-70
2022/12/30 11:51:25;;;;;;;5.40;1.50;;;;;;;9.55;66.75;100224.19;5098731;28;20040;-70
2022/12/30 11:54:04;;;;;;;8.07;1.63;;;;;;;9.54;67.44;100228.72;5103949;28;20048;-69
2022/12/30 11:56:32;;;;;;;8.30;2.28;;;;;;;9.60;67.64;100229.66;5101215;28;20052;-68
2022/12/30 11:59:08;;;;;;;8.15;1.50;;;;;;;9.67;66.78;100208.91;5103089;28;20055;-68
2022/12/30 12:01:43;;;;;;;7.77;2.10;;;;;;;9.62;67.09;100203.44;5095426;28;20064;-68
2022/12/30 12:04:38;;;;;;;7.13;2.03;;;;;;;9.59;67.43;100185.94;5100505;28;20044;-68
2022/12/30 12:07:21;;;;;;;11.30;2.25;;;;;;;9.56;66.93;100191.75;5107609;28;20052;-64
2022/12/30 12:09:56;;;;;;;6.70;2.03;;;;;;;9.56;67.49;100189.06;5098103;28;20086;-70
2022/12/30 12:12:28;;;;;;;4.82;1.67;;;;;;;9.56;66.95;100174.84;5098468;28;20072;-70
2022/12/30 12:15:06;;;;;;;5.50;1.55;;;;;;;9.58;66.96;100175.44;5095822;28;20109;-70
2022/12/30 12:17:47;;;;;;;8.30;2.13;;;;;;;9.61;66.91;100165.06;5103451;28;20127;-70
2022/12/30 12:20:25;;;;;;;9.93;1.92;;;;;;;9.97;69.27;100155.13;5096691;28;20076;-71
2022/12/30 12:23:10;;;;;;;7.57;1.83;;;;;;;9.83;67.45;100146.50;5110060;28;20144;-69
2022/12/30 12:25:43;;;;;;;5.80;1.38;;;;;;;9.80;67.48;100149.66;5103111;28;20075;-72
2022/12/30 12:28:12;;;;;;;9.10;1.88;;;;;;;9.77;67.61;100139.38;5099879;28;20048;-70
2022/12/30 12:30:59;;;;;;;7.78;2.08;;;;;;;9.81;67.70;100134.38;5096955;28;20047;-70
2022/12/30 12:33:39;;;;;;;6.25;2.03;;;;;;;9.85;67.43;100124.81;5102889;28;20044;-71
2022/12/30 12:36:17;;;;;;;16.52;4.13;;;;;;;9.99;67.54;100115.44;5102344;28;20223;-69
2022/12/30 12:38:55;;;;;;;11.80;2.75;;;;;;;10.14;66.74;100113.09;5095982;28;20047;-70
2022/12/30 12:41:51;;;;;;;9.73;2.60;;;;;;;10.24;66.58;100091.84;5102012;28;20477;-70
2022/12/30 12:44:35;;;;;;;8.20;2.40;;;;;;;10.36;66.28;100086.44;5103055;28;20107;-71